createdAt,value
2023-03-16T00:00:19.849Z,5.48
2023-03-16T00:02:47.162Z,5.50
2023-03-16T00:05:14.816Z,5.51
2023-03-16T00:07:43.178Z,5.54
2023-03-16T00:10:12.521Z,5.55
2023-03-16T00:12:43.581Z,5.56
2023-03-16T00:15:12.322Z,5.55
2023-03-16T00:17:39.720Z,5.55
2023-03-16T00:20:08.142Z,5.57
2023-03-16T00:22:35.506Z,5.57
2023-03-16T00:25:03.308Z,5.57
2023-03-16T00:27:30.803Z,5.57
2023-03-16T00:29:57.918Z,5.58
2023-03-16T00:32:32.361Z,5.59
2023-03-16T00:35:02.265Z,5.59
2023-03-16T00:37:30.585Z,5.60
2023-03-16T00:39:58.493Z,5.61
2023-03-16T00:42:30.069Z,5.63
2023-03-16T00:44:58.866Z,5.64
2023-03-16T00:47:35.109Z,5.64
2023-03-16T00:50:03.276Z,5.64
2023-03-16T00:52:30.826Z,5.65
2023-03-16T00:54:58.160Z,5.65
2023-03-16T00:57:27.794Z,5.66
2023-03-16T00:59:54.900Z,5.69
2023-03-16T01:02:25.589Z,5.68
2023-03-16T01:04:55.000Z,5.69
2023-03-16T01:07:22.914Z,5.69
2023-03-16T01:09:50.198Z,5.67
2023-03-16T01:12:19.368Z,5.66
2023-03-16T01:14:47.878Z,5.65
2023-03-16T01:17:17.507Z,5.63
2023-03-16T01:19:45.881Z,5.64
2023-03-16T01:22:13.739Z,5.68
2023-03-16T01:24:42.840Z,5.72
2023-03-16T01:27:10.004Z,5.72
2023-03-16T01:29:38.083Z,5.72
2023-03-16T01:32:06.433Z,5.72
2023-03-16T01:34:35.128Z,5.70
2023-03-16T01:37:03.053Z,5.71
2023-03-16T01:39:30.722Z,5.71
2023-03-16T01:41:57.949Z,5.71
2023-03-16T01:44:35.203Z,5.71
2023-03-16T01:47:02.597Z,5.72
2023-03-16T01:49:36.718Z,5.72
2023-03-16T01:52:12.704Z,5.72
2023-03-16T01:54:54.473Z,5.74
2023-03-16T01:57:31.166Z,5.76
2023-03-16T02:00:24.086Z,5.78
2023-03-16T02:02:58.464Z,5.78
2023-03-16T02:05:48.924Z,5.81
2023-03-16T02:08:18.011Z,5.82
2023-03-16T02:10:45.801Z,5.85
2023-03-16T02:13:14.679Z,5.88
2023-03-16T02:15:42.060Z,5.88
2023-03-16T02:18:09.668Z,5.89
2023-03-16T02:20:52.080Z,5.90
2023-03-16T02:23:23.193Z,5.88
2023-03-16T02:26:23.177Z,5.85
2023-03-16T02:29:11.555Z,5.83
2023-03-16T02:31:39.494Z,5.80
2023-03-16T02:34:08.350Z,5.80
2023-03-16T02:36:37.985Z,5.79
2023-03-16T02:39:05.973Z,5.81
2023-03-16T02:41:33.292Z,5.81
2023-03-16T02:44:28.231Z,5.80
2023-03-16T02:47:00.203Z,5.77
2023-03-16T02:49:38.964Z,5.77
2023-03-16T02:52:07.920Z,5.76
2023-03-16T02:54:35.237Z,5.76
2023-03-16T02:57:02.648Z,5.77
2023-03-16T02:59:30.229Z,5.77
2023-03-16T03:01:57.778Z,5.76
2023-03-16T03:04:25.154Z,5.79
2023-03-16T03:06:52.670Z,5.76
2023-03-16T03:09:20.961Z,5.76
2023-03-16T03:11:48.220Z,5.75
2023-03-16T03:14:16.923Z,5.74
2023-03-16T03:16:47.652Z,5.74
2023-03-16T03:19:14.917Z,5.76
2023-03-16T03:21:42.330Z,5.75
2023-03-16T03:24:10.194Z,5.74
2023-03-16T03:26:38.645Z,5.72
2023-03-16T03:29:05.994Z,5.71
2023-03-16T03:31:33.464Z,5.70
2023-03-16T03:34:06.455Z,5.71
2023-03-16T03:36:34.987Z,5.73
2023-03-16T03:39:05.156Z,5.73
2023-03-16T03:41:33.867Z,5.74
2023-03-16T03:44:01.356Z,5.75
2023-03-16T03:46:28.624Z,5.75
2023-03-16T03:48:58.369Z,5.78
2023-03-16T03:51:25.745Z,5.81
2023-03-16T03:53:52.796Z,5.79
2023-03-16T03:56:19.961Z,5.81
2023-03-16T03:58:47.057Z,5.83
2023-03-16T04:01:14.190Z,5.84
2023-03-16T04:03:42.894Z,5.85
2023-03-16T04:06:11.825Z,5.86
2023-03-16T04:08:39.114Z,5.86
2023-03-16T04:11:06.286Z,5.84
2023-03-16T04:13:33.645Z,5.83
2023-03-16T04:16:05.048Z,5.83
2023-03-16T04:18:38.665Z,5.84
2023-03-16T04:21:07.244Z,5.86
2023-03-16T04:23:34.962Z,5.89
2023-03-16T04:26:02.613Z,5.88
2023-03-16T04:28:29.944Z,5.89
2023-03-16T04:31:07.286Z,5.89
2023-03-16T04:33:36.291Z,5.89
2023-03-16T04:36:05.347Z,5.90
2023-03-16T04:38:34.106Z,5.93
2023-03-16T04:41:06.815Z,5.95
2023-03-16T04:43:37.068Z,5.96
2023-03-16T04:46:06.693Z,5.99
2023-03-16T04:48:34.031Z,6.01
2023-03-16T04:51:04.233Z,6.02
2023-03-16T04:53:32.118Z,6.03
2023-03-16T04:55:59.565Z,6.03
2023-03-16T04:58:27.168Z,6.05
2023-03-16T05:00:56.120Z,6.06
2023-03-16T05:03:23.825Z,6.08
2023-03-16T05:05:51.469Z,6.09
2023-03-16T05:08:18.694Z,6.08
2023-03-16T05:10:48.272Z,6.09
2023-03-16T05:13:15.501Z,6.08
2023-03-16T05:15:42.685Z,6.07
2023-03-16T05:18:10.052Z,6.08
2023-03-16T05:20:37.167Z,6.09
2023-03-16T05:23:04.342Z,6.10
2023-03-16T05:25:31.521Z,6.12
2023-03-16T05:27:58.830Z,6.11
2023-03-16T05:30:26.813Z,6.09
2023-03-16T05:32:55.088Z,6.14
2023-03-16T05:35:24.192Z,6.14
2023-03-16T05:37:51.635Z,6.15
2023-03-16T05:40:19.231Z,6.16
2023-03-16T05:42:55.917Z,6.16
2023-03-16T05:45:23.669Z,6.17
2023-03-16T05:47:51.020Z,6.19
2023-03-16T05:50:18.447Z,6.20
2023-03-16T05:52:46.391Z,6.20
2023-03-16T05:55:18.798Z,6.19
2023-03-16T05:57:45.932Z,6.23
2023-03-16T06:00:16.024Z,6.23
2023-03-16T06:02:46.965Z,6.23
2023-03-16T06:05:14.772Z,6.23
2023-03-16T06:07:42.812Z,6.23
2023-03-16T06:10:11.994Z,6.25
2023-03-16T06:12:39.390Z,6.26
2023-03-16T06:15:08.714Z,6.30
2023-03-16T06:17:37.256Z,6.34
2023-03-16T06:20:11.150Z,6.36
2023-03-16T06:22:39.982Z,6.41
2023-03-16T06:25:10.002Z,6.44
2023-03-16T06:27:37.850Z,6.45
2023-03-16T06:30:07.308Z,6.49
2023-03-16T06:32:35.862Z,6.51
2023-03-16T06:35:04.432Z,6.52
2023-03-16T06:37:32.247Z,6.58
2023-03-16T06:39:59.724Z,6.61
2023-03-16T06:42:27.147Z,6.66
2023-03-16T06:44:54.904Z,6.69
2023-03-16T06:47:22.333Z,6.75
2023-03-16T06:49:51.809Z,6.78
2023-03-16T06:52:19.185Z,6.81
2023-03-16T06:54:46.444Z,6.84
2023-03-16T06:57:14.251Z,6.85
2023-03-16T06:59:41.306Z,6.89
2023-03-16T07:02:14.627Z,6.92
2023-03-16T07:04:42.314Z,6.97
2023-03-16T07:07:10.280Z,7.02
2023-03-16T07:09:40.350Z,7.07
2023-03-16T07:12:09.662Z,7.15
2023-03-16T07:14:37.128Z,7.24
2023-03-16T07:17:04.515Z,7.33
2023-03-16T07:19:32.279Z,7.41
2023-03-16T07:21:59.765Z,7.48
2023-03-16T07:24:27.559Z,7.50
2023-03-16T07:26:55.137Z,7.55
2023-03-16T07:29:22.562Z,7.61
2023-03-16T07:31:50.007Z,7.71
2023-03-16T07:34:18.440Z,7.76
2023-03-16T07:36:45.683Z,7.83
2023-03-16T07:39:14.395Z,7.86
2023-03-16T07:41:41.826Z,7.90
2023-03-16T07:44:08.866Z,7.97
2023-03-16T07:46:35.943Z,8.02
2023-03-16T07:49:03.165Z,8.07
2023-03-16T07:51:31.303Z,8.09
2023-03-16T07:53:58.619Z,8.11
2023-03-16T07:56:28.310Z,8.23
2023-03-16T07:58:56.998Z,8.43
2023-03-16T08:01:24.355Z,8.63
2023-03-16T08:03:51.382Z,8.80
2023-03-16T08:06:18.473Z,8.89
2023-03-16T08:08:46.136Z,8.93
2023-03-16T08:11:14.251Z,8.96
2023-03-16T08:13:44.011Z,9.07
2023-03-16T08:16:13.561Z,9.21
2023-03-16T08:18:41.808Z,9.32
2023-03-16T08:21:09.074Z,9.45
2023-03-16T08:23:36.449Z,9.57
2023-03-16T08:26:08.809Z,9.79
2023-03-16T08:28:36.843Z,10.00
2023-03-16T08:31:08.792Z,10.20
2023-03-16T08:33:36.145Z,10.28
2023-03-16T08:36:07.498Z,10.30
2023-03-16T08:38:35.335Z,10.32
2023-03-16T08:41:02.821Z,10.33
2023-03-16T08:43:30.278Z,10.37
2023-03-16T08:45:57.662Z,10.41
2023-03-16T08:48:26.570Z,10.42
2023-03-16T08:50:54.471Z,10.35
2023-03-16T08:53:21.931Z,10.23
2023-03-16T08:55:49.030Z,10.20
2023-03-16T08:58:16.158Z,10.25
2023-03-16T09:00:46.470Z,10.33
2023-03-16T09:03:14.099Z,10.47
2023-03-16T09:05:42.426Z,10.61
2023-03-16T09:08:09.789Z,10.74
2023-03-16T09:10:38.164Z,10.92
2023-03-16T09:13:05.159Z,11.07
2023-03-16T09:15:32.626Z,11.18
2023-03-16T09:18:00.928Z,11.24
2023-03-16T09:20:29.999Z,11.34
2023-03-16T09:22:59.114Z,11.52
2023-03-16T09:25:26.527Z,11.74
2023-03-16T09:27:54.171Z,12.02
2023-03-16T09:30:21.479Z,12.33
2023-03-16T09:32:49.103Z,12.50
2023-03-16T09:35:16.838Z,12.62
2023-03-16T09:38:01.038Z,12.59
2023-03-16T09:40:31.992Z,12.49
2023-03-16T09:43:24.972Z,12.49
2023-03-16T09:46:16.451Z,12.45
2023-03-16T09:48:43.889Z,12.44
2023-03-16T09:51:37.653Z,12.57
2023-03-16T09:54:34.290Z,12.63
2023-03-16T09:57:01.967Z,12.78
2023-03-16T09:59:28.977Z,12.83
2023-03-16T10:02:25.586Z,12.92
2023-03-16T10:04:58.630Z,12.96
2023-03-16T10:07:58.889Z,12.90
2023-03-16T10:11:03.862Z,12.93
2023-03-16T10:13:48.800Z,12.93
2023-03-16T10:16:41.788Z,12.93
2023-03-16T10:19:19.560Z,12.89
2023-03-16T10:21:49.124Z,12.82
2023-03-16T10:24:48.684Z,12.78
2023-03-16T10:27:23.290Z,12.98
2023-03-16T10:29:50.678Z,13.13
2023-03-16T10:32:19.783Z,13.27
2023-03-16T10:35:20.835Z,13.48
2023-03-16T10:37:49.184Z,13.62
2023-03-16T10:40:20.518Z,13.72
2023-03-16T10:42:48.080Z,13.80
2023-03-16T10:45:32.220Z,13.89
2023-03-16T10:48:14.576Z,13.92
2023-03-16T10:50:44.650Z,13.89
2023-03-16T10:53:34.809Z,13.99
2023-03-16T10:56:20.709Z,14.11
2023-03-16T10:58:47.767Z,14.39
2023-03-16T11:01:24.585Z,14.69
2023-03-16T11:03:55.553Z,14.97
2023-03-16T11:06:30.911Z,15.18
2023-03-16T11:09:12.819Z,15.36
2023-03-16T11:11:46.697Z,15.52
2023-03-16T11:14:15.642Z,15.63
2023-03-16T11:17:11.065Z,15.89
2023-03-16T11:19:42.726Z,16.04
2023-03-16T11:22:18.950Z,16.19
2023-03-16T11:25:01.002Z,16.33
2023-03-16T11:27:54.228Z,16.40
2023-03-16T11:30:29.516Z,16.44
2023-03-16T11:33:00.289Z,16.44
2023-03-16T11:35:38.544Z,16.46
2023-03-16T11:38:34.598Z,16.51
2023-03-16T11:41:21.571Z,16.50
2023-03-16T11:43:57.109Z,16.51
2023-03-16T11:46:47.197Z,16.55
2023-03-16T11:50:00.231Z,16.66
2023-03-16T11:53:19.240Z,16.74
2023-03-16T11:56:08.061Z,16.73
2023-03-16T11:58:53.737Z,16.71
2023-03-16T12:02:00.207Z,16.57
2023-03-16T12:04:47.736Z,16.54
2023-03-16T12:07:58.145Z,16.58
2023-03-16T12:11:06.777Z,16.51
2023-03-16T12:14:10.918Z,16.36
2023-03-16T12:17:13.562Z,16.09
2023-03-16T12:20:16.177Z,15.86
2023-03-16T12:23:14.958Z,15.66
2023-03-16T12:25:47.768Z,15.51
2023-03-16T12:28:26.724Z,15.47
2023-03-16T12:31:20.018Z,15.43
2023-03-16T12:34:18.628Z,15.43
2023-03-16T12:37:00.957Z,15.47
2023-03-16T12:39:48.853Z,15.39
2023-03-16T12:42:32.806Z,15.35
2023-03-16T12:45:08.209Z,15.37
2023-03-16T12:47:59.635Z,15.37
2023-03-16T12:50:27.507Z,15.38
2023-03-16T12:52:54.756Z,15.41
2023-03-16T12:55:46.824Z,15.41
2023-03-16T12:58:18.497Z,15.41
2023-03-16T13:00:59.569Z,15.41
2023-03-16T13:03:28.603Z,15.39
2023-03-16T13:05:59.745Z,15.42
2023-03-16T13:08:30.711Z,15.44
2023-03-16T13:11:00.684Z,15.46
2023-03-16T13:13:28.837Z,15.51
2023-03-16T13:16:09.457Z,15.54
2023-03-16T13:18:45.293Z,15.59
2023-03-16T13:21:35.869Z,15.65
2023-03-16T13:24:35.243Z,15.69
2023-03-16T13:27:18.143Z,15.73
2023-03-16T13:30:02.221Z,15.78
2023-03-16T13:32:33.902Z,15.85
2023-03-16T13:35:05.497Z,15.88
2023-03-16T13:37:33.166Z,15.88
2023-03-16T13:40:04.460Z,15.90
2023-03-16T13:42:33.712Z,15.93
2023-03-16T13:45:15.396Z,15.94
2023-03-16T13:47:45.320Z,15.96
2023-03-16T13:50:14.536Z,15.99
2023-03-16T13:52:44.190Z,16.04
2023-03-16T13:55:18.504Z,16.12
2023-03-16T13:57:48.428Z,16.23
2023-03-16T14:00:27.914Z,16.33
2023-03-16T14:02:58.996Z,16.33
2023-03-16T14:05:35.348Z,16.40
2023-03-16T14:08:05.075Z,16.44
2023-03-16T14:10:36.802Z,16.48
2023-03-16T14:13:34.361Z,16.49
2023-03-16T14:16:16.984Z,16.47
2023-03-16T14:18:53.784Z,16.46
2023-03-16T14:21:27.922Z,16.39
2023-03-16T14:24:06.790Z,16.34
2023-03-16T14:26:43.666Z,16.29
2023-03-16T14:29:31.630Z,16.30
2023-03-16T14:32:03.847Z,16.28
2023-03-16T14:34:36.363Z,16.26
2023-03-16T14:37:09.962Z,16.22
2023-03-16T14:39:38.372Z,16.19
2023-03-16T14:42:13.889Z,16.18
2023-03-16T14:44:41.420Z,16.18
2023-03-16T14:47:15.676Z,16.19
2023-03-16T14:49:43.562Z,16.19
2023-03-16T14:52:31.884Z,16.19
2023-03-16T14:55:02.315Z,16.19
2023-03-16T14:57:30.726Z,16.21
2023-03-16T14:59:57.983Z,16.17
2023-03-16T15:02:30.871Z,16.11
2023-03-16T15:05:00.249Z,16.09
2023-03-16T15:07:34.527Z,16.07
2023-03-16T15:10:20.133Z,16.07
2023-03-16T15:12:53.999Z,16.09
2023-03-16T15:15:24.071Z,16.10
2023-03-16T15:17:52.837Z,16.14
2023-03-16T15:20:25.660Z,16.17
2023-03-16T15:22:53.720Z,16.20
2023-03-16T15:25:28.538Z,16.24
2023-03-16T15:27:55.997Z,16.29
2023-03-16T15:30:29.119Z,16.38
2023-03-16T15:32:56.721Z,16.42
2023-03-16T15:35:24.158Z,16.43
2023-03-16T15:37:51.875Z,16.41
2023-03-16T15:40:26.970Z,16.33
2023-03-16T15:42:54.644Z,16.28
2023-03-16T15:45:23.473Z,16.24
2023-03-16T15:47:53.830Z,16.20
2023-03-16T15:50:24.814Z,16.19
2023-03-16T15:53:05.538Z,16.20
2023-03-16T15:55:42.082Z,16.21
2023-03-16T15:58:27.662Z,16.26
2023-03-16T16:00:57.890Z,16.25
2023-03-16T16:03:27.511Z,16.21
2023-03-16T16:05:55.752Z,16.15
2023-03-16T16:08:23.439Z,16.08
2023-03-16T16:10:53.264Z,15.98
2023-03-16T16:13:37.348Z,15.90
2023-03-16T16:16:14.769Z,15.84
2023-03-16T16:18:42.419Z,15.76
2023-03-16T16:21:25.094Z,15.76
2023-03-16T16:23:53.102Z,15.72
2023-03-16T16:26:55.618Z,15.70
2023-03-16T16:29:27.778Z,15.75
2023-03-16T16:31:55.661Z,15.89
2023-03-16T16:34:25.002Z,15.98
2023-03-16T16:36:54.015Z,16.04
2023-03-16T16:39:21.930Z,16.07
2023-03-16T16:41:51.907Z,16.08
2023-03-16T16:44:27.361Z,16.05
2023-03-16T16:46:55.584Z,15.95
2023-03-16T16:49:26.192Z,15.86
2023-03-16T16:51:54.495Z,15.77
2023-03-16T16:54:25.651Z,15.65
2023-03-16T16:56:55.039Z,15.51
2023-03-16T16:59:29.038Z,15.37
2023-03-16T17:01:57.470Z,15.21
2023-03-16T17:04:28.273Z,15.08
2023-03-16T17:07:00.841Z,14.99
2023-03-16T17:09:30.329Z,14.88
2023-03-16T17:12:02.137Z,14.75
2023-03-16T17:14:31.157Z,14.63
2023-03-16T17:17:05.021Z,14.51
2023-03-16T17:19:32.830Z,14.40
2023-03-16T17:22:00.060Z,14.29
2023-03-16T17:24:28.749Z,14.19
2023-03-16T17:27:00.576Z,14.09
2023-03-16T17:29:33.967Z,13.98
2023-03-16T17:32:12.340Z,13.88
2023-03-16T17:34:39.605Z,13.78
2023-03-16T17:37:19.727Z,13.68
2023-03-16T17:39:46.891Z,13.57
2023-03-16T17:42:18.995Z,13.43
2023-03-16T17:44:51.927Z,13.34
2023-03-16T17:47:26.495Z,13.25
2023-03-16T17:49:54.658Z,13.19
2023-03-16T17:52:26.002Z,13.11
2023-03-16T17:54:54.296Z,13.02
2023-03-16T17:57:33.710Z,12.94
2023-03-16T18:00:02.297Z,12.85
2023-03-16T18:03:02.462Z,12.77
2023-03-16T18:05:34.976Z,12.64
2023-03-16T18:08:29.533Z,12.54
2023-03-16T18:11:07.980Z,12.40
2023-03-16T18:13:39.429Z,12.33
2023-03-16T18:16:07.901Z,12.24
2023-03-16T18:18:42.043Z,12.18
2023-03-16T18:21:28.556Z,12.12
2023-03-16T18:23:57.286Z,12.04
2023-03-16T18:26:24.654Z,11.98
2023-03-16T18:28:53.550Z,11.95
2023-03-16T18:31:26.328Z,11.92
2023-03-16T18:34:03.698Z,11.87
2023-03-16T18:36:37.740Z,11.82
2023-03-16T18:39:07.705Z,11.74
2023-03-16T18:41:36.253Z,11.71
2023-03-16T18:44:13.709Z,11.68
2023-03-16T18:46:40.905Z,11.63
2023-03-16T18:49:36.144Z,11.58
2023-03-16T18:52:04.504Z,11.50
2023-03-16T18:54:38.363Z,11.45
2023-03-16T18:57:16.779Z,11.40
2023-03-16T18:59:44.265Z,11.34
2023-03-16T19:02:29.989Z,11.28
2023-03-16T19:05:00.565Z,11.24
2023-03-16T19:07:41.149Z,11.20
2023-03-16T19:10:35.488Z,11.12
2023-03-16T19:13:03.336Z,11.05
2023-03-16T19:15:35.800Z,11.01
2023-03-16T19:18:03.163Z,10.97
2023-03-16T19:20:33.588Z,10.94
2023-03-16T19:23:12.125Z,10.92
2023-03-16T19:25:42.543Z,10.86
2023-03-16T19:28:20.432Z,10.83
2023-03-16T19:30:48.983Z,10.79
2023-03-16T19:33:28.519Z,10.75
2023-03-16T19:35:57.069Z,10.73
2023-03-16T19:38:26.571Z,10.70
2023-03-16T19:40:59.363Z,10.67
2023-03-16T19:43:28.436Z,10.66
2023-03-16T19:45:56.746Z,10.63
2023-03-16T19:48:34.758Z,10.61
2023-03-16T19:51:02.295Z,10.59
2023-03-16T19:53:30.677Z,10.57
2023-03-16T19:55:58.142Z,10.53
2023-03-16T19:58:38.647Z,10.53
2023-03-16T20:01:19.250Z,10.52
2023-03-16T20:03:48.572Z,10.51
2023-03-16T20:06:19.284Z,10.50
2023-03-16T20:08:48.111Z,10.50
2023-03-16T20:11:30.849Z,10.50
2023-03-16T20:13:59.604Z,10.47
2023-03-16T20:16:33.756Z,10.47
2023-03-16T20:19:05.310Z,10.47
2023-03-16T20:21:32.847Z,10.47
2023-03-16T20:24:00.324Z,10.43
2023-03-16T20:26:33.303Z,10.41
2023-03-16T20:29:01.587Z,10.40
2023-03-16T20:31:34.230Z,10.37
2023-03-16T20:34:01.631Z,10.33
2023-03-16T20:36:29.463Z,10.30
2023-03-16T20:38:56.526Z,10.29
2023-03-16T20:41:32.842Z,10.28
2023-03-16T20:44:04.346Z,10.26
2023-03-16T20:46:33.446Z,10.25
2023-03-16T20:49:01.081Z,10.23
2023-03-16T20:51:28.984Z,10.23
2023-03-16T20:53:56.554Z,10.23
2023-03-16T20:56:26.663Z,10.22
2023-03-16T20:58:56.337Z,10.19
2023-03-16T21:01:24.500Z,10.15
2023-03-16T21:04:00.106Z,10.11
2023-03-16T21:06:31.881Z,10.05
2023-03-16T21:09:02.750Z,10.03
2023-03-16T21:11:37.007Z,10.01
2023-03-16T21:14:07.176Z,9.98
2023-03-16T21:16:34.803Z,9.95
2023-03-16T21:19:02.046Z,9.93
2023-03-16T21:21:29.115Z,9.92
2023-03-16T21:23:56.558Z,9.90
2023-03-16T21:26:27.976Z,9.89
2023-03-16T21:28:59.547Z,9.87
2023-03-16T21:31:27.286Z,9.87
2023-03-16T21:33:55.793Z,9.88
2023-03-16T21:36:28.491Z,9.89
2023-03-16T21:38:57.331Z,9.90
2023-03-16T21:41:24.732Z,9.90
2023-03-16T21:43:52.352Z,9.90
2023-03-16T21:46:23.095Z,9.90
2023-03-16T21:48:54.848Z,9.91
2023-03-16T21:51:28.974Z,9.92
2023-03-16T21:53:56.476Z,9.93
2023-03-16T21:56:26.144Z,9.92
2023-03-16T21:58:54.824Z,9.92
2023-03-16T22:01:30.596Z,9.90
2023-03-16T22:04:14.121Z,9.88
2023-03-16T22:06:44.021Z,9.86
2023-03-16T22:09:20.339Z,9.84
2023-03-16T22:11:47.736Z,9.84
2023-03-16T22:14:14.731Z,9.84
2023-03-16T22:16:42.558Z,9.83
2023-03-16T22:19:14.755Z,9.82
2023-03-16T22:21:44.814Z,9.79
2023-03-16T22:24:22.166Z,9.80
2023-03-16T22:26:50.796Z,9.80
2023-03-16T22:29:31.693Z,9.82
2023-03-16T22:32:07.617Z,9.83
2023-03-16T22:34:42.984Z,9.85
2023-03-16T22:37:16.875Z,9.83
2023-03-16T22:39:45.229Z,9.84
2023-03-16T22:42:33.155Z,9.84
2023-03-16T22:45:03.561Z,9.84
2023-03-16T22:47:36.859Z,9.81
2023-03-16T22:50:04.546Z,9.80
2023-03-16T22:52:37.056Z,9.79
2023-03-16T22:55:06.157Z,9.77
2023-03-16T22:57:33.670Z,9.76
2023-03-16T23:00:11.182Z,9.74
2023-03-16T23:02:38.785Z,9.73
2023-03-16T23:05:25.255Z,9.69
2023-03-16T23:07:53.068Z,9.66
2023-03-16T23:10:24.189Z,9.64
2023-03-16T23:12:53.549Z,9.63
2023-03-16T23:15:25.881Z,9.62
2023-03-16T23:17:53.451Z,9.58
2023-03-16T23:20:31.851Z,9.54
2023-03-16T23:22:59.942Z,9.50
2023-03-16T23:25:27.041Z,9.48
2023-03-16T23:27:54.303Z,9.44
2023-03-16T23:30:25.881Z,9.42
2023-03-16T23:32:55.375Z,9.39
2023-03-16T23:35:26.827Z,9.36
2023-03-16T23:37:54.976Z,9.35
2023-03-16T23:40:24.985Z,9.32
2023-03-16T23:42:56.048Z,9.31
2023-03-16T23:45:25.246Z,9.30
2023-03-16T23:47:55.957Z,9.29
2023-03-16T23:50:28.456Z,9.28
2023-03-16T23:52:56.244Z,9.28
2023-03-16T23:55:24.759Z,9.25
2023-03-16T23:57:51.966Z,9.27
